sensor_id;sensor_type;location;lat;lon;timestamp;pressure;altitude;pressure_sealevel;temperature;humidity
70248;BME280;57641;51.416;5.506;2023-04-29T00:01:09;101563.00;;;15.28;62.16
70248;BME280;57641;51.416;5.506;2023-04-29T00:03:35;101556.47;;;15.38;62.33
70248;BME280;57641;51.416;5.506;2023-04-29T00:06:00;101564.63;;;15.12;62.61
70248;BME280;57641;51.416;5.506;2023-04-29T00:08:27;101566.47;;;15.04;63.18
70248;BME280;57641;51.416;5.506;2023-04-29T00:10:53;101565.88;;;14.08;65.12
70248;BME280;57641;51.416;5.506;2023-04-29T00:13:18;101567.38;;;14.70;63.81
70248;BME280;57641;51.416;5.506;2023-04-29T00:15:44;101569.28;;;14.78;62.65
70248;BME280;57641;51.416;5.506;2023-04-29T00:18:10;101569.16;;;14.20;64.59
70248;BME280;57641;51.416;5.506;2023-04-29T00:20:35;101569.22;;;14.62;63.59
70248;BME280;57641;51.416;5.506;2023-04-29T00:23:04;101576.34;;;14.45;63.97
70248;BME280;57641;51.416;5.506;2023-04-29T00:25:31;101577.88;;;14.22;65.19
70248;BME280;57641;51.416;5.506;2023-04-29T00:27:56;101580.06;;;15.02;62.97
70248;BME280;57641;51.416;5.506;2023-04-29T00:30:29;101577.53;;;14.93;62.92
70248;BME280;57641;51.416;5.506;2023-04-29T00:32:55;101591.31;;;14.98;62.45
70248;BME280;57641;51.416;5.506;2023-04-29T00:35:21;101593.03;;;15.23;62.22
70248;BME280;57641;51.416;5.506;2023-04-29T00:37:46;101599.75;;;15.11;60.95
70248;BME280;57641;51.416;5.506;2023-04-29T00:40:12;101599.50;;;14.88;61.99
70248;BME280;57641;51.416;5.506;2023-04-29T00:42:41;101598.06;;;15.10;60.95
70248;BME280;57641;51.416;5.506;2023-04-29T00:45:08;101601.53;;;15.02;61.88
70248;BME280;57641;51.416;5.506;2023-04-29T00:47:34;101593.69;;;15.01;62.00
70248;BME280;57641;51.416;5.506;2023-04-29T00:49:59;101600.25;;;15.14;61.34
70248;BME280;57641;51.416;5.506;2023-04-29T00:52:27;101600.31;;;14.80;62.71
70248;BME280;57641;51.416;5.506;2023-04-29T00:54:55;101602.88;;;14.98;62.39
70248;BME280;57641;51.416;5.506;2023-04-29T00:57:21;101598.94;;;14.76;61.68
70248;BME280;57641;51.416;5.506;2023-04-29T00:59:47;101600.34;;;14.47;62.83
70248;BME280;57641;51.416;5.506;2023-04-29T01:02:13;101603.69;;;14.83;61.93
70248;BME280;57641;51.416;5.506;2023-04-29T01:04:38;101599.78;;;14.77;61.87
70248;BME280;57641;51.416;5.506;2023-04-29T01:07:30;101604.41;;;15.01;61.27
70248;BME280;57641;51.416;5.506;2023-04-29T01:10:08;101607.91;;;14.51;62.19
70248;BME280;57641;51.416;5.506;2023-04-29T01:17:39;101613.56;;;14.74;61.45
70248;BME280;57641;51.416;5.506;2023-04-29T01:20:08;101621.66;;;14.90;61.46
70248;BME280;57641;51.416;5.506;2023-04-29T01:22:34;101625.19;;;14.91;61.13
70248;BME280;57641;51.416;5.506;2023-04-29T01:25:01;101624.22;;;15.00;60.55
70248;BME280;57641;51.416;5.506;2023-04-29T01:27:41;101623.88;;;15.03;61.00
70248;BME280;57641;51.416;5.506;2023-04-29T01:33:02;101635.59;;;14.86;60.44
70248;BME280;57641;51.416;5.506;2023-04-29T01:38:00;101638.38;;;14.76;61.20
70248;BME280;57641;51.416;5.506;2023-04-29T01:40:42;101637.88;;;14.72;61.50
70248;BME280;57641;51.416;5.506;2023-04-29T01:43:11;101635.22;;;14.47;61.02
70248;BME280;57641;51.416;5.506;2023-04-29T01:45:38;101640.06;;;14.77;60.53
70248;BME280;57641;51.416;5.506;2023-04-29T01:48:08;101646.91;;;14.71;60.70
70248;BME280;57641;51.416;5.506;2023-04-29T01:50:34;101642.75;;;14.77;60.97
70248;BME280;57641;51.416;5.506;2023-04-29T01:53:00;101643.31;;;14.89;59.73
70248;BME280;57641;51.416;5.506;2023-04-29T01:55:25;101644.72;;;14.67;60.08
70248;BME280;57641;51.416;5.506;2023-04-29T01:57:52;101643.00;;;14.58;61.01
70248;BME280;57641;51.416;5.506;2023-04-29T02:00:17;101645.91;;;14.72;61.00
70248;BME280;57641;51.416;5.506;2023-04-29T02:02:42;101643.09;;;14.74;60.60
70248;BME280;57641;51.416;5.506;2023-04-29T02:05:09;101651.44;;;14.71;60.64
70248;BME280;57641;51.416;5.506;2023-04-29T02:07:35;101649.72;;;14.62;60.83
70248;BME280;57641;51.416;5.506;2023-04-29T02:10:00;101649.59;;;14.71;60.97
70248;BME280;57641;51.416;5.506;2023-04-29T02:12:26;101661.50;;;14.69;61.27
70248;BME280;57641;51.416;5.506;2023-04-29T02:14:51;101658.47;;;14.64;61.47
70248;BME280;57641;51.416;5.506;2023-04-29T02:17:17;101662.81;;;14.65;60.97
70248;BME280;57641;51.416;5.506;2023-04-29T02:19:43;101659.22;;;14.48;61.48
70248;BME280;57641;51.416;5.506;2023-04-29T02:22:08;101668.09;;;14.74;61.04
70248;BME280;57641;51.416;5.506;2023-04-29T02:24:37;101665.75;;;14.79;61.24
70248;BME280;57641;51.416;5.506;2023-04-29T02:27:02;101670.06;;;14.72;61.55
70248;BME280;57641;51.416;5.506;2023-04-29T02:29:30;101665.94;;;14.52;61.83
70248;BME280;57641;51.416;5.506;2023-04-29T02:31:56;101674.75;;;14.70;61.42
70248;BME280;57641;51.416;5.506;2023-04-29T02:34:22;101676.44;;;14.71;61.47
70248;BME280;57641;51.416;5.506;2023-04-29T02:36:48;101676.28;;;14.73;61.29
70248;BME280;57641;51.416;5.506;2023-04-29T02:39:14;101681.97;;;14.44;61.94
70248;BME280;57641;51.416;5.506;2023-04-29T02:41:41;101688.41;;;14.51;62.23
70248;BME280;57641;51.416;5.506;2023-04-29T02:44:06;101690.94;;;14.53;61.91
70248;BME280;57641;51.416;5.506;2023-04-29T02:46:32;101693.00;;;14.59;61.67
70248;BME280;57641;51.416;5.506;2023-04-29T02:48:59;101701.69;;;14.53;62.12
70248;BME280;57641;51.416;5.506;2023-04-29T02:51:25;101705.75;;;14.65;61.45
70248;BME280;57641;51.416;5.506;2023-04-29T02:53:52;101700.44;;;14.73;61.53
70248;BME280;57641;51.416;5.506;2023-04-29T02:56:17;101701.59;;;14.70;61.64
70248;BME280;57641;51.416;5.506;2023-04-29T02:58:43;101706.59;;;14.65;61.69
70248;BME280;57641;51.416;5.506;2023-04-29T03:01:08;101705.97;;;14.71;61.13
70248;BME280;57641;51.416;5.506;2023-04-29T03:03:33;101714.00;;;14.63;61.66
70248;BME280;57641;51.416;5.506;2023-04-29T03:05:59;101715.34;;;14.42;62.06
70248;BME280;57641;51.416;5.506;2023-04-29T03:08:24;101716.56;;;14.47;62.79
70248;BME280;57641;51.416;5.506;2023-04-29T03:10:50;101712.25;;;14.80;61.69
70248;BME280;57641;51.416;5.506;2023-04-29T03:13:15;101716.59;;;14.81;61.98
70248;BME280;57641;51.416;5.506;2023-04-29T03:15:41;101720.38;;;14.70;61.72
70248;BME280;57641;51.416;5.506;2023-04-29T03:18:06;101712.88;;;14.74;62.26
70248;BME280;57641;51.416;5.506;2023-04-29T03:20:34;101716.78;;;14.88;62.14
70248;BME280;57641;51.416;5.506;2023-04-29T03:22:59;101721.81;;;14.57;62.86
70248;BME280;57641;51.416;5.506;2023-04-29T03:25:25;101723.91;;;14.71;62.92
70248;BME280;57641;51.416;5.506;2023-04-29T03:27:50;101724.84;;;14.54;63.06
70248;BME280;57641;51.416;5.506;2023-04-29T03:30:16;101728.25;;;14.64;63.01
70248;BME280;57641;51.416;5.506;2023-04-29T03:32:41;101730.94;;;14.64;62.95
70248;BME280;57641;51.416;5.506;2023-04-29T03:35:07;101728.53;;;14.61;63.03
70248;BME280;57641;51.416;5.506;2023-04-29T03:37:33;101730.66;;;14.75;62.61
70248;BME280;57641;51.416;5.506;2023-04-29T03:39:58;101727.88;;;14.59;62.81
70248;BME280;57641;51.416;5.506;2023-04-29T03:42:24;101731.78;;;14.64;63.44
70248;BME280;57641;51.416;5.506;2023-04-29T03:44:49;101734.78;;;14.44;63.96
70248;BME280;57641;51.416;5.506;2023-04-29T03:47:14;101743.19;;;14.66;63.36
70248;BME280;57641;51.416;5.506;2023-04-29T03:49:40;101742.03;;;14.69;63.51
70248;BME280;57641;51.416;5.506;2023-04-29T03:52:06;101740.72;;;14.47;63.38
70248;BME280;57641;51.416;5.506;2023-04-29T03:54:31;101743.63;;;14.54;63.63
70248;BME280;57641;51.416;5.506;2023-04-29T03:56:57;101747.78;;;14.74;63.45
70248;BME280;57641;51.416;5.506;2023-04-29T03:59:23;101743.91;;;14.76;62.74
70248;BME280;57641;51.416;5.506;2023-04-29T04:01:48;101746.09;;;14.73;62.81
70248;BME280;57641;51.416;5.506;2023-04-29T04:04:13;101750.13;;;14.77;62.93
70248;BME280;57641;51.416;5.506;2023-04-29T04:06:39;101754.03;;;14.83;62.78
70248;BME280;57641;51.416;5.506;2023-04-29T04:09:05;101757.81;;;14.72;62.42
70248;BME280;57641;51.416;5.506;2023-04-29T04:11:30;101762.69;;;14.51;62.48
70248;BME280;57641;51.416;5.506;2023-04-29T04:13:56;101764.00;;;14.64;62.91
70248;BME280;57641;51.416;5.506;2023-04-29T04:16:21;101764.50;;;14.42;63.07
70248;BME280;57641;51.416;5.506;2023-04-29T04:18:47;101764.38;;;14.52;62.85
70248;BME280;57641;51.416;5.506;2023-04-29T04:21:12;101764.59;;;14.58;62.59
70248;BME280;57641;51.416;5.506;2023-04-29T04:23:39;101764.44;;;14.60;62.60
70248;BME280;57641;51.416;5.506;2023-04-29T04:26:05;101764.72;;;14.49;62.49
70248;BME280;57641;51.416;5.506;2023-04-29T04:28:31;101769.16;;;14.40;62.45
70248;BME280;57641;51.416;5.506;2023-04-29T04:30:56;101777.44;;;14.47;62.46
70248;BME280;57641;51.416;5.506;2023-04-29T04:33:23;101778.78;;;14.51;62.79
70248;BME280;57641;51.416;5.506;2023-04-29T04:35:49;101786.19;;;14.49;62.59
70248;BME280;57641;51.416;5.506;2023-04-29T04:38:15;101778.22;;;14.65;62.67
70248;BME280;57641;51.416;5.506;2023-04-29T04:40:41;101781.22;;;14.62;62.77
70248;BME280;57641;51.416;5.506;2023-04-29T04:43:07;101791.44;;;14.58;62.81
70248;BME280;57641;51.416;5.506;2023-04-29T04:45:32;101791.97;;;14.62;62.41
70248;BME280;57641;51.416;5.506;2023-04-29T04:47:58;101793.66;;;14.63;62.88
70248;BME280;57641;51.416;5.506;2023-04-29T04:50:26;101793.91;;;14.77;62.31
70248;BME280;57641;51.416;5.506;2023-04-29T04:52:54;101802.13;;;14.76;61.95
70248;BME280;57641;51.416;5.506;2023-04-29T04:55:21;101808.16;;;14.52;62.02
70248;BME280;57641;51.416;5.506;2023-04-29T04:57:46;101816.66;;;14.65;62.51
70248;BME280;57641;51.416;5.506;2023-04-29T05:00:12;101822.47;;;14.61;63.15
70248;BME280;57641;51.416;5.506;2023-04-29T05:02:38;101823.44;;;14.52;63.14
70248;BME280;57641;51.416;5.506;2023-04-29T05:05:04;101830.25;;;14.64;63.17
70248;BME280;57641;51.416;5.506;2023-04-29T05:07:29;101830.72;;;14.42;63.13
70248;BME280;57641;51.416;5.506;2023-04-29T05:09:55;101828.63;;;14.35;63.26
70248;BME280;57641;51.416;5.506;2023-04-29T05:12:21;101825.81;;;14.37;63.99
70248;BME280;57641;51.416;5.506;2023-04-29T05:14:46;101829.84;;;14.06;64.23
70248;BME280;57641;51.416;5.506;2023-04-29T05:17:11;101837.66;;;14.17;63.97
70248;BME280;57641;51.416;5.506;2023-04-29T05:19:37;101833.59;;;14.13;64.06
70248;BME280;57641;51.416;5.506;2023-04-29T05:22:02;101839.53;;;14.07;64.76
70248;BME280;57641;51.416;5.506;2023-04-29T05:24:28;101833.59;;;14.30;64.06
70248;BME280;57641;51.416;5.506;2023-04-29T05:26:54;101842.56;;;14.21;64.21
70248;BME280;57641;51.416;5.506;2023-04-29T05:29:20;101848.69;;;14.31;63.37
70248;BME280;57641;51.416;5.506;2023-04-29T05:31:45;101857.31;;;14.53;63.44
70248;BME280;57641;51.416;5.506;2023-04-29T05:34:10;101855.72;;;14.42;63.79
70248;BME280;57641;51.416;5.506;2023-04-29T05:36:36;101852.56;;;14.47;63.58
70248;BME280;57641;51.416;5.506;2023-04-29T05:39:01;101854.25;;;14.48;63.36
70248;BME280;57641;51.416;5.506;2023-04-29T05:41:27;101855.84;;;14.58;63.26
70248;BME280;57641;51.416;5.506;2023-04-29T05:43:52;101858.31;;;14.52;62.90
70248;BME280;57641;51.416;5.506;2023-04-29T05:46:18;101860.66;;;14.55;63.44
70248;BME280;57641;51.416;5.506;2023-04-29T05:48:44;101863.81;;;14.68;63.36
70248;BME280;57641;51.416;5.506;2023-04-29T05:51:11;101869.25;;;14.76;62.74
70248;BME280;57641;51.416;5.506;2023-04-29T05:53:37;101866.66;;;14.66;62.50
70248;BME280;57641;51.416;5.506;2023-04-29T05:56:03;101878.47;;;14.73;62.56
70248;BME280;57641;51.416;5.506;2023-04-29T05:58:33;101884.13;;;14.70;62.70
70248;BME280;57641;51.416;5.506;2023-04-29T06:00:59;101884.28;;;14.51;63.01
70248;BME280;57641;51.416;5.506;2023-04-29T06:03:24;101889.34;;;14.54;62.82
70248;BME280;57641;51.416;5.506;2023-04-29T06:05:50;101896.41;;;14.73;62.45
70248;BME280;57641;51.416;5.506;2023-04-29T06:08:16;101901.69;;;14.65;62.49
70248;BME280;57641;51.416;5.506;2023-04-29T06:10:41;101894.09;;;14.78;62.42
70248;BME280;57641;51.416;5.506;2023-04-29T06:13:07;101901.69;;;14.83;62.17
70248;BME280;57641;51.416;5.506;2023-04-29T06:15:32;101914.03;;;14.75;62.31
70248;BME280;57641;51.416;5.506;2023-04-29T06:17:58;101914.06;;;14.30;63.15
70248;BME280;57641;51.416;5.506;2023-04-29T06:20:23;101910.38;;;14.59;62.47
70248;BME280;57641;51.416;5.506;2023-04-29T06:22:49;101913.44;;;14.46;63.14
70248;BME280;57641;51.416;5.506;2023-04-29T06:25:15;101916.25;;;14.45;63.12
70248;BME280;57641;51.416;5.506;2023-04-29T06:27:41;101919.97;;;14.16;63.88
70248;BME280;57641;51.416;5.506;2023-04-29T06:30:07;101916.03;;;14.56;62.89
70248;BME280;57641;51.416;5.506;2023-04-29T06:32:32;101919.13;;;14.43;62.27
70248;BME280;57641;51.416;5.506;2023-04-29T06:34:58;101926.47;;;14.59;63.57
70248;BME280;57641;51.416;5.506;2023-04-29T06:37:23;101931.91;;;14.67;62.50
70248;BME280;57641;51.416;5.506;2023-04-29T06:39:49;101936.22;;;14.77;62.77
70248;BME280;57641;51.416;5.506;2023-04-29T06:42:14;101936.53;;;14.74;62.83
70248;BME280;57641;51.416;5.506;2023-04-29T06:44:39;101935.88;;;14.80;62.81
70248;BME280;57641;51.416;5.506;2023-04-29T06:47:05;101941.13;;;14.82;61.79
70248;BME280;57641;51.416;5.506;2023-04-29T06:49:30;101946.56;;;14.72;61.63
70248;BME280;57641;51.416;5.506;2023-04-29T06:51:56;101947.94;;;14.76;62.24
70248;BME280;57641;51.416;5.506;2023-04-29T06:54:22;101950.47;;;14.78;62.34
70248;BME280;57641;51.416;5.506;2023-04-29T06:56:47;101957.47;;;14.89;62.35
70248;BME280;57641;51.416;5.506;2023-04-29T06:59:12;101966.06;;;14.74;62.80
70248;BME280;57641;51.416;5.506;2023-04-29T07:01:39;101965.84;;;14.86;62.54
70248;BME280;57641;51.416;5.506;2023-04-29T07:04:05;101975.25;;;14.72;62.69
70248;BME280;57641;51.416;5.506;2023-04-29T07:06:31;101978.69;;;14.82;62.64
70248;BME280;57641;51.416;5.506;2023-04-29T07:08:56;101972.09;;;14.76;61.67
70248;BME280;57641;51.416;5.506;2023-04-29T07:11:22;101978.47;;;14.58;62.23
70248;BME280;57641;51.416;5.506;2023-04-29T07:13:51;101979.63;;;14.73;62.93
70248;BME280;57641;51.416;5.506;2023-04-29T07:16:18;101983.06;;;14.83;62.71
70248;BME280;57641;51.416;5.506;2023-04-29T07:18:46;101983.59;;;14.87;61.84
70248;BME280;57641;51.416;5.506;2023-04-29T07:21:11;101976.56;;;14.86;61.30
70248;BME280;57641;51.416;5.506;2023-04-29T07:23:37;101979.25;;;14.86;60.94
70248;BME280;57641;51.416;5.506;2023-04-29T07:26:13;101995.06;;;15.06;61.12
70248;BME280;57641;51.416;5.506;2023-04-29T07:28:41;101987.84;;;14.89;62.12
70248;BME280;57641;51.416;5.506;2023-04-29T07:31:07;101997.88;;;14.87;60.88
70248;BME280;57641;51.416;5.506;2023-04-29T07:33:34;101984.84;;;14.92;60.57
70248;BME280;57641;51.416;5.506;2023-04-29T07:36:00;101999.59;;;15.06;60.59
70248;BME280;57641;51.416;5.506;2023-04-29T07:38:26;102002.56;;;15.20;60.35
70248;BME280;57641;51.416;5.506;2023-04-29T07:40:54;101997.78;;;15.14;60.51
70248;BME280;57641;51.416;5.506;2023-04-29T07:43:19;101999.88;;;15.20;59.52
70248;BME280;57641;51.416;5.506;2023-04-29T07:45:46;102012.97;;;15.23;60.36
70248;BME280;57641;51.416;5.506;2023-04-29T07:48:12;102008.06;;;15.19;60.74
70248;BME280;57641;51.416;5.506;2023-04-29T07:50:37;102008.91;;;15.19;60.85
70248;BME280;57641;51.416;5.506;2023-04-29T07:53:03;102014.31;;;15.45;59.61
70248;BME280;57641;51.416;5.506;2023-04-29T07:55:29;102018.09;;;15.35;59.98
70248;BME280;57641;51.416;5.506;2023-04-29T07:57:56;102024.09;;;15.46;59.65
70248;BME280;57641;51.416;5.506;2023-04-29T08:00:22;102030.09;;;15.58;60.18
70248;BME280;57641;51.416;5.506;2023-04-29T08:02:52;102034.63;;;15.57;58.78
70248;BME280;57641;51.416;5.506;2023-04-29T08:05:18;102025.19;;;15.53;58.28
70248;BME280;57641;51.416;5.506;2023-04-29T08:07:44;102032.16;;;15.46;58.92
70248;BME280;57641;51.416;5.506;2023-04-29T08:10:10;102029.13;;;15.67;58.99
70248;BME280;57641;51.416;5.506;2023-04-29T08:12:36;102030.03;;;15.76;59.25
70248;BME280;57641;51.416;5.506;2023-04-29T08:15:01;102037.91;;;15.34;60.28
70248;BME280;57641;51.416;5.506;2023-04-29T08:17:27;102034.09;;;15.54;58.17
70248;BME280;57641;51.416;5.506;2023-04-29T08:19:52;102041.22;;;15.63;58.02
70248;BME280;57641;51.416;5.506;2023-04-29T08:22:18;102036.69;;;15.63;57.91
70248;BME280;57641;51.416;5.506;2023-04-29T08:24:43;102039.47;;;15.54;57.76
70248;BME280;57641;51.416;5.506;2023-04-29T08:27:09;102040.06;;;15.48;58.23
70248;BME280;57641;51.416;5.506;2023-04-29T08:29:35;102045.03;;;15.60;58.61
70248;BME280;57641;51.416;5.506;2023-04-29T08:32:01;102042.59;;;15.67;57.62
70248;BME280;57641;51.416;5.506;2023-04-29T08:34:27;102042.09;;;15.72;57.27
70248;BME280;57641;51.416;5.506;2023-04-29T08:36:53;102038.28;;;15.74;57.64
70248;BME280;57641;51.416;5.506;2023-04-29T08:39:18;102040.75;;;15.68;58.05
70248;BME280;57641;51.416;5.506;2023-04-29T08:41:44;102053.28;;;15.59;58.46
70248;BME280;57641;51.416;5.506;2023-04-29T08:44:14;102045.44;;;15.91;57.39
70248;BME280;57641;51.416;5.506;2023-04-29T08:46:42;102052.56;;;16.00;56.66
70248;BME280;57641;51.416;5.506;2023-04-29T08:49:08;102047.25;;;16.17;57.18
70248;BME280;57641;51.416;5.506;2023-04-29T08:51:34;102049.78;;;16.18;56.30
70248;BME280;57641;51.416;5.506;2023-04-29T08:53:59;102047.94;;;16.19;56.10
70248;BME280;57641;51.416;5.506;2023-04-29T08:56:25;102050.03;;;16.33;57.50
70248;BME280;57641;51.416;5.506;2023-04-29T08:58:52;102046.78;;;16.21;56.57
70248;BME280;57641;51.416;5.506;2023-04-29T09:01:24;102045.72;;;16.48;56.79
70248;BME280;57641;51.416;5.506;2023-04-29T09:04:20;102055.94;;;16.36;56.84
70248;BME280;57641;51.416;5.506;2023-04-29T09:06:50;102051.69;;;16.34;55.33
70248;BME280;57641;51.416;5.506;2023-04-29T09:09:17;102058.53;;;16.54;55.96
70248;BME280;57641;51.416;5.506;2023-04-29T09:11:43;102068.34;;;16.29;55.02
70248;BME280;57641;51.416;5.506;2023-04-29T09:14:09;102056.94;;;16.01;55.14
70248;BME280;57641;51.416;5.506;2023-04-29T09:16:34;102062.81;;;16.31;55.17
70248;BME280;57641;51.416;5.506;2023-04-29T09:19:02;102063.72;;;16.47;54.73
70248;BME280;57641;51.416;5.506;2023-04-29T09:21:29;102065.56;;;16.13;55.92
70248;BME280;57641;51.416;5.506;2023-04-29T09:24:01;102065.97;;;16.26;54.66
70248;BME280;57641;51.416;5.506;2023-04-29T09:26:40;102064.00;;;16.36;54.29
70248;BME280;57641;51.416;5.506;2023-04-29T09:29:12;102063.50;;;16.75;53.43
70248;BME280;57641;51.416;5.506;2023-04-29T09:31:43;102069.25;;;16.88;53.34
70248;BME280;57641;51.416;5.506;2023-04-29T09:34:10;102061.41;;;17.11;52.34
70248;BME280;57641;51.416;5.506;2023-04-29T09:36:50;102079.25;;;17.20;51.48
70248;BME280;57641;51.416;5.506;2023-04-29T09:39:22;102072.19;;;17.35;51.78
70248;BME280;57641;51.416;5.506;2023-04-29T09:44:17;102064.47;;;17.48;51.52
70248;BME280;57641;51.416;5.506;2023-04-29T09:46:43;102070.50;;;17.42;50.48
70248;BME280;57641;51.416;5.506;2023-04-29T09:52:01;102077.25;;;17.46;51.14
70248;BME280;57641;51.416;5.506;2023-04-29T09:54:28;102076.56;;;17.36;50.78
70248;BME280;57641;51.416;5.506;2023-04-29T09:56:55;102068.66;;;17.43;49.58
70248;BME280;57641;51.416;5.506;2023-04-29T09:59:22;102081.97;;;17.52;50.30
70248;BME280;57641;51.416;5.506;2023-04-29T10:01:50;102083.81;;;17.52;49.62
70248;BME280;57641;51.416;5.506;2023-04-29T10:04:18;102087.59;;;16.51;53.38
70248;BME280;57641;51.416;5.506;2023-04-29T10:06:47;102086.72;;;17.34;50.54
70248;BME280;57641;51.416;5.506;2023-04-29T10:09:14;102084.84;;;17.59;51.22
70248;BME280;57641;51.416;5.506;2023-04-29T10:11:48;102090.59;;;17.64;50.93
70248;BME280;57641;51.416;5.506;2023-04-29T10:14:22;102096.16;;;17.79;49.86
70248;BME280;57641;51.416;5.506;2023-04-29T10:19:25;102101.03;;;17.99;50.09
70248;BME280;57641;51.416;5.506;2023-04-29T10:21:54;102103.22;;;17.96;50.17
70248;BME280;57641;51.416;5.506;2023-04-29T10:24:24;102105.91;;;17.47;49.20
70248;BME280;57641;51.416;5.506;2023-04-29T10:26:50;102109.09;;;17.51;48.55
70248;BME280;57641;51.416;5.506;2023-04-29T10:29:18;102103.56;;;17.44;49.25
70248;BME280;57641;51.416;5.506;2023-04-29T10:31:45;102101.22;;;17.65;48.92
70248;BME280;57641;51.416;5.506;2023-04-29T10:34:12;102105.25;;;17.78;48.67
70248;BME280;57641;51.416;5.506;2023-04-29T10:36:40;102107.28;;;17.84;47.85
70248;BME280;57641;51.416;5.506;2023-04-29T10:39:10;102100.84;;;18.01;48.80
70248;BME280;57641;51.416;5.506;2023-04-29T10:41:44;102098.84;;;17.95;48.57
70248;BME280;57641;51.416;5.506;2023-04-29T10:44:13;102096.28;;;18.18;48.72
70248;BME280;57641;51.416;5.506;2023-04-29T10:46:39;102099.41;;;18.37;48.70
70248;BME280;57641;51.416;5.506;2023-04-29T10:49:06;102099.22;;;18.55;48.05
70248;BME280;57641;51.416;5.506;2023-04-29T10:51:40;102098.78;;;18.74;46.79
70248;BME280;57641;51.416;5.506;2023-04-29T10:54:08;102104.34;;;18.73;46.31
70248;BME280;57641;51.416;5.506;2023-04-29T10:56:49;102105.19;;;18.81;46.61
70248;BME280;57641;51.416;5.506;2023-04-29T10:59:18;102109.84;;;18.40;45.99
70248;BME280;57641;51.416;5.506;2023-04-29T11:01:49;102107.25;;;18.08;47.92
70248;BME280;57641;51.416;5.506;2023-04-29T11:04:17;102109.03;;;18.32;47.44
70248;BME280;57641;51.416;5.506;2023-04-29T11:06:45;102108.19;;;18.39;48.22
70248;BME280;57641;51.416;5.506;2023-04-29T11:09:17;102112.09;;;18.21;48.11
70248;BME280;57641;51.416;5.506;2023-04-29T11:16:53;102119.38;;;18.04;48.11
70248;BME280;57641;51.416;5.506;2023-04-29T11:19:23;102119.91;;;18.07;47.49
70248;BME280;57641;51.416;5.506;2023-04-29T11:22:03;102119.88;;;18.15;47.16
70248;BME280;57641;51.416;5.506;2023-04-29T11:24:33;102125.97;;;18.18;46.28
70248;BME280;57641;51.416;5.506;2023-04-29T11:27:01;102123.03;;;18.35;46.77
70248;BME280;57641;51.416;5.506;2023-04-29T11:29:30;102118.28;;;18.45;46.69
70248;BME280;57641;51.416;5.506;2023-04-29T11:32:00;102121.69;;;18.39;45.40
70248;BME280;57641;51.416;5.506;2023-04-29T11:34:26;102126.38;;;18.53;46.46
70248;BME280;57641;51.416;5.506;2023-04-29T11:36:52;102120.31;;;18.43;45.93
70248;BME280;57641;51.416;5.506;2023-04-29T11:39:18;102122.09;;;18.04;46.07
70248;BME280;57641;51.416;5.506;2023-04-29T11:41:43;102126.78;;;18.26;46.64
70248;BME280;57641;51.416;5.506;2023-04-29T11:44:10;102127.78;;;18.33;46.10
70248;BME280;57641;51.416;5.506;2023-04-29T11:46:36;102125.97;;;18.18;46.10
70248;BME280;57641;51.416;5.506;2023-04-29T11:49:01;102126.53;;;18.52;46.70
70248;BME280;57641;51.416;5.506;2023-04-29T11:51:27;102127.34;;;18.69;46.57
70248;BME280;57641;51.416;5.506;2023-04-29T11:53:53;102125.56;;;18.37;45.98
70248;BME280;57641;51.416;5.506;2023-04-29T11:56:22;102131.28;;;18.42;46.18
70248;BME280;57641;51.416;5.506;2023-04-29T11:58:53;102129.59;;;18.49;45.76
70248;BME280;57641;51.416;5.506;2023-04-29T12:01:20;102122.00;;;18.61;46.35
70248;BME280;57641;51.416;5.506;2023-04-29T12:03:48;102132.59;;;18.62;45.70
70248;BME280;57641;51.416;5.506;2023-04-29T12:06:14;102131.13;;;18.43;45.37
70248;BME280;57641;51.416;5.506;2023-04-29T12:08:40;102134.47;;;18.45;46.13
70248;BME280;57641;51.416;5.506;2023-04-29T12:11:06;102129.06;;;18.53;45.26
70248;BME280;57641;51.416;5.506;2023-04-29T12:13:32;102128.03;;;18.71;45.84
70248;BME280;57641;51.416;5.506;2023-04-29T12:16:01;102127.63;;;18.82;45.79
70248;BME280;57641;51.416;5.506;2023-04-29T12:18:28;102128.34;;;18.76;43.89
70248;BME280;57641;51.416;5.506;2023-04-29T12:20:55;102126.78;;;18.81;44.34
70248;BME280;57641;51.416;5.506;2023-04-29T12:23:22;102125.19;;;18.64;44.67
70248;BME280;57641;51.416;5.506;2023-04-29T12:25:56;102124.75;;;18.83;45.54
70248;BME280;57641;51.416;5.506;2023-04-29T12:28:23;102124.00;;;18.97;45.38
70248;BME280;57641;51.416;5.506;2023-04-29T12:30:50;102118.84;;;19.11;43.77
70248;BME280;57641;51.416;5.506;2023-04-29T12:33:20;102124.03;;;19.20;44.59
70248;BME280;57641;51.416;5.506;2023-04-29T12:35:50;102124.59;;;19.38;44.30
70248;BME280;57641;51.416;5.506;2023-04-29T12:38:34;102122.94;;;19.60;43.49
70248;BME280;57641;51.416;5.506;2023-04-29T12:41:00;102126.41;;;19.69;43.30
70248;BME280;57641;51.416;5.506;2023-04-29T12:43:31;102130.72;;;19.78;42.42
70248;BME280;57641;51.416;5.506;2023-04-29T12:46:04;102120.94;;;19.77;42.47
70248;BME280;57641;51.416;5.506;2023-04-29T12:48:34;102127.50;;;19.83;41.79
70248;BME280;57641;51.416;5.506;2023-04-29T12:51:01;102124.88;;;19.89;41.05
70248;BME280;57641;51.416;5.506;2023-04-29T12:53:30;102127.03;;;19.94;41.59
70248;BME280;57641;51.416;5.506;2023-04-29T12:55:57;102129.44;;;19.89;41.16
70248;BME280;57641;51.416;5.506;2023-04-29T12:58:23;102134.69;;;19.90;41.63
70248;BME280;57641;51.416;5.506;2023-04-29T13:00:49;102128.41;;;19.52;42.25
70248;BME280;57641;51.416;5.506;2023-04-29T13:03:15;102136.97;;;19.78;42.08
70248;BME280;57641;51.416;5.506;2023-04-29T13:05:41;102132.81;;;19.91;42.26
70248;BME280;57641;51.416;5.506;2023-04-29T13:08:06;102128.53;;;19.96;41.46
70248;BME280;57641;51.416;5.506;2023-04-29T13:10:36;102122.66;;;19.93;41.11
70248;BME280;57641;51.416;5.506;2023-04-29T13:13:01;102127.13;;;20.00;42.11